createdAt,value
2018-02-16T00:01:49.959Z,47.43
2018-02-16T00:04:17.414Z,54.53
2018-02-16T00:06:44.876Z,52.23
2018-02-16T00:09:12.334Z,50.90
2018-02-16T00:11:39.787Z,47.20
2018-02-16T00:14:07.239Z,44.73
2018-02-16T00:16:34.699Z,38.67
2018-02-16T00:19:02.151Z,42.80
2018-02-16T00:21:29.611Z,38.97
2018-02-16T00:23:57.067Z,39.47
2018-02-16T00:26:24.524Z,40.03
2018-02-16T00:28:51.983Z,42.87
2018-02-16T00:31:19.434Z,45.47
2018-02-16T00:33:46.888Z,44.77
2018-02-16T00:36:14.341Z,45.13
2018-02-16T00:38:41.776Z,68.40
2018-02-16T00:41:09.229Z,44.00
2018-02-16T00:43:37.439Z,47.80
2018-02-16T00:46:04.892Z,43.20
2018-02-16T00:48:32.341Z,51.47
2018-02-16T00:50:59.808Z,41.83
2018-02-16T00:53:27.263Z,39.77
2018-02-16T00:55:54.724Z,36.53
2018-02-16T00:58:22.175Z,36.30
2018-02-16T01:00:50.052Z,32.70
2018-02-16T01:03:17.512Z,33.47
2018-02-16T01:05:44.988Z,33.00
2018-02-16T01:08:12.444Z,30.97
2018-02-16T01:10:39.900Z,33.17
2018-02-16T01:13:07.367Z,33.27
2018-02-16T01:15:34.815Z,30.87
2018-02-16T01:18:02.272Z,33.27
2018-02-16T01:20:29.715Z,29.40
2018-02-16T01:22:57.172Z,28.70
2018-02-16T01:25:24.624Z,26.97
2018-02-16T01:27:52.074Z,24.30
2018-02-16T01:30:19.535Z,25.77
2018-02-16T01:32:46.991Z,22.87
2018-02-16T01:35:14.432Z,24.77
2018-02-16T01:37:41.890Z,24.30
2018-02-16T01:40:09.343Z,20.67
2018-02-16T01:42:36.802Z,22.00
2018-02-16T01:45:04.258Z,34.47
2018-02-16T01:47:31.720Z,36.63
2018-02-16T01:50:05.966Z,37.93
2018-02-16T01:52:33.420Z,39.77
2018-02-16T01:55:00.866Z,35.93
2018-02-16T01:57:28.317Z,34.97
2018-02-16T01:59:55.760Z,36.70
2018-02-16T02:02:23.214Z,37.83
2018-02-16T02:04:50.658Z,40.20
2018-02-16T02:07:18.115Z,42.77
2018-02-16T02:09:45.571Z,37.93
2018-02-16T02:12:13.032Z,36.07
2018-02-16T02:14:40.482Z,34.53
2018-02-16T02:17:07.939Z,26.80
2018-02-16T02:19:36.159Z,26.97
2018-02-16T02:22:03.609Z,22.50
2018-02-16T02:24:31.064Z,20.50
2018-02-16T02:26:58.521Z,20.33
2018-02-16T02:29:25.976Z,18.03
2018-02-16T02:31:53.433Z,18.50
2018-02-16T02:34:20.887Z,19.80
2018-02-16T02:36:48.339Z,17.80
2018-02-16T02:39:15.791Z,16.80
2018-02-16T02:41:43.243Z,18.63
2018-02-16T02:44:10.702Z,14.77
2018-02-16T02:46:38.159Z,16.27
2018-02-16T02:49:05.617Z,14.20
2018-02-16T02:51:33.059Z,14.20
2018-02-16T02:54:00.528Z,14.20
2018-02-16T02:56:27.983Z,23.00
2018-02-16T02:58:55.451Z,34.37
2018-02-16T03:01:22.907Z,30.10
2018-02-16T03:03:50.364Z,31.23
2018-02-16T03:06:17.820Z,27.70
2018-02-16T03:08:45.281Z,27.80
2018-02-16T03:11:12.723Z,24.23
2018-02-16T03:13:40.179Z,17.87
2018-02-16T03:16:07.640Z,19.93
2018-02-16T03:18:35.103Z,19.70
2018-02-16T03:21:02.571Z,15.07
2018-02-16T03:23:30.020Z,15.97
2018-02-16T03:25:57.475Z,15.00
2018-02-16T03:28:24.925Z,14.40
2018-02-16T03:30:52.376Z,13.40
2018-02-16T03:33:19.824Z,13.00
2018-02-16T03:35:47.274Z,12.97
2018-02-16T03:38:14.739Z,13.83
2018-02-16T03:40:42.191Z,14.30
2018-02-16T03:43:09.646Z,14.70
2018-02-16T03:45:37.108Z,13.33
2018-02-16T03:48:04.559Z,15.67
2018-02-16T03:50:32.040Z,15.10
2018-02-16T03:52:59.478Z,26.17
2018-02-16T03:55:26.940Z,22.93
2018-02-16T03:57:54.380Z,22.43
2018-02-16T04:00:21.839Z,27.30
2018-02-16T04:02:49.283Z,24.40
2018-02-16T04:05:16.736Z,27.10
2018-02-16T04:07:44.185Z,25.60
2018-02-16T04:10:11.648Z,22.67
2018-02-16T04:12:39.096Z,21.97
2018-02-16T04:15:06.559Z,21.20
2018-02-16T04:17:34.016Z,22.03
2018-02-16T04:20:01.463Z,21.63
2018-02-16T04:22:28.910Z,25.63
2018-02-16T04:24:56.346Z,22.53
2018-02-16T04:27:24.562Z,20.00
2018-02-16T04:29:52.022Z,24.30
2018-02-16T04:32:19.474Z,23.63
2018-02-16T04:34:46.925Z,23.37
2018-02-16T04:37:14.381Z,21.90
2018-02-16T04:39:41.820Z,20.73
2018-02-16T04:42:09.272Z,21.37
2018-02-16T04:44:36.719Z,19.90
2018-02-16T04:47:04.935Z,18.60
2018-02-16T04:49:32.388Z,18.50
2018-02-16T04:51:59.852Z,18.90
2018-02-16T04:54:27.298Z,19.23
2018-02-16T04:56:54.763Z,19.80
2018-02-16T04:59:22.217Z,19.30
2018-02-16T05:01:49.667Z,20.53
2018-02-16T05:04:17.125Z,18.80
2018-02-16T05:06:44.587Z,20.77
2018-02-16T05:09:12.038Z,20.53
2018-02-16T05:11:39.495Z,18.50
2018-02-16T05:14:06.951Z,19.17
2018-02-16T05:16:34.409Z,19.83
2018-02-16T05:19:01.863Z,23.70
2018-02-16T05:21:29.320Z,26.63
2018-02-16T05:23:56.775Z,25.13
2018-02-16T05:26:24.237Z,20.20
2018-02-16T05:28:51.695Z,21.80
2018-02-16T05:31:19.147Z,16.70
2018-02-16T05:33:46.586Z,17.10
2018-02-16T05:36:14.059Z,14.07
2018-02-16T05:38:41.515Z,13.87
2018-02-16T05:41:08.969Z,15.33
2018-02-16T05:43:36.423Z,12.37
2018-02-16T05:46:03.860Z,10.90
2018-02-16T05:48:31.315Z,10.50
2018-02-16T05:50:59.523Z,7.60
2018-02-16T05:53:26.979Z,11.40
2018-02-16T05:55:54.426Z,10.37
2018-02-16T05:58:21.880Z,10.50
2018-02-16T06:00:49.338Z,10.23
2018-02-16T06:03:16.795Z,13.20
2018-02-16T06:05:44.234Z,15.77
2018-02-16T06:08:11.686Z,20.43
2018-02-16T06:10:39.135Z,13.23
2018-02-16T06:13:07.362Z,12.07
2018-02-16T06:15:34.823Z,13.33
2018-02-16T06:18:02.280Z,16.50
2018-02-16T06:20:29.718Z,13.83
2018-02-16T06:22:57.174Z,20.70
2018-02-16T06:25:24.617Z,16.90
2018-02-16T06:27:52.075Z,19.57
2018-02-16T06:30:19.531Z,12.73
2018-02-16T06:32:46.987Z,13.40
2018-02-16T06:35:14.438Z,13.80
2018-02-16T06:37:41.927Z,13.60
2018-02-16T06:40:09.351Z,11.20
2018-02-16T06:42:36.795Z,15.23
2018-02-16T06:45:04.239Z,10.50
2018-02-16T06:47:31.683Z,11.07
2018-02-16T06:49:59.899Z,9.60
2018-02-16T06:52:27.352Z,18.27
2018-02-16T06:54:54.807Z,10.57
2018-02-16T06:57:22.246Z,7.57
2018-02-16T06:59:49.698Z,13.40
2018-02-16T07:02:17.138Z,11.13
2018-02-16T07:04:45.363Z,13.10
2018-02-16T07:07:12.815Z,18.60
2018-02-16T07:09:40.277Z,33.50
2018-02-16T07:12:07.728Z,28.07
2018-02-16T07:14:35.187Z,27.43
2018-02-16T07:17:02.637Z,15.83
2018-02-16T07:19:31.138Z,18.13
2018-02-16T07:21:58.705Z,24.40
2018-02-16T07:24:26.280Z,17.30
2018-02-16T07:26:54.503Z,17.63
2018-02-16T07:29:21.959Z,17.53
2018-02-16T07:31:49.417Z,19.97
2018-02-16T07:34:16.882Z,18.33
2018-02-16T07:36:44.326Z,17.10
2018-02-16T07:39:11.793Z,25.13
2018-02-16T07:41:40.008Z,20.23
2018-02-16T07:44:07.460Z,24.03
2018-02-16T07:46:34.931Z,19.70
2018-02-16T07:49:03.143Z,16.07
2018-02-16T07:51:30.599Z,17.57
2018-02-16T07:53:58.051Z,15.90
2018-02-16T07:56:25.508Z,15.60
2018-02-16T07:58:52.961Z,16.60
2018-02-16T08:01:20.418Z,20.60
2018-02-16T08:03:47.873Z,18.53
2018-02-16T08:06:15.319Z,18.77
2018-02-16T08:08:42.762Z,16.43
2018-02-16T08:11:10.988Z,14.27
2018-02-16T08:13:38.435Z,16.90
2018-02-16T08:16:05.890Z,15.57
2018-02-16T08:18:33.344Z,18.17
2018-02-16T08:21:00.800Z,17.43
2018-02-16T08:23:28.254Z,16.60
2018-02-16T08:25:55.710Z,19.27
2018-02-16T08:28:23.154Z,14.47
2018-02-16T08:30:50.611Z,17.00
2018-02-16T08:33:18.068Z,26.73
2018-02-16T08:35:45.970Z,17.60
2018-02-16T08:38:13.419Z,12.87
2018-02-16T08:40:40.873Z,16.83
2018-02-16T08:43:08.315Z,12.87
2018-02-16T08:45:35.775Z,12.47
2018-02-16T08:48:03.232Z,14.10
2018-02-16T08:50:30.699Z,12.97
2018-02-16T08:52:58.147Z,15.03
2018-02-16T08:55:25.591Z,12.00
2018-02-16T08:57:53.034Z,13.23
2018-02-16T09:00:20.483Z,14.10
2018-02-16T09:02:47.928Z,11.77
2018-02-16T09:05:15.375Z,11.47
2018-02-16T09:07:43.596Z,11.60
2018-02-16T09:10:11.035Z,11.13
2018-02-16T09:12:38.491Z,10.67
2018-02-16T09:15:05.942Z,14.63
2018-02-16T09:17:33.404Z,15.90
2018-02-16T09:20:00.859Z,16.33
2018-02-16T09:22:28.312Z,9.80
2018-02-16T09:24:55.755Z,12.20
2018-02-16T09:27:23.202Z,11.70
2018-02-16T09:29:50.653Z,10.70
2018-02-16T09:32:18.867Z,10.33
2018-02-16T09:34:46.364Z,9.37
2018-02-16T09:37:13.766Z,9.33
2018-02-16T09:39:42.518Z,9.07
2018-02-16T09:42:10.734Z,8.37
2018-02-16T09:44:38.177Z,10.40
2018-02-16T09:47:05.627Z,13.67
2018-02-16T09:49:33.072Z,9.30
2018-02-16T09:52:01.287Z,9.70
2018-02-16T09:54:28.774Z,11.73
2018-02-16T09:56:56.218Z,10.30
2018-02-16T09:59:23.673Z,14.40
2018-02-16T10:01:51.130Z,7.87
2018-02-16T10:04:18.580Z,7.17
2018-02-16T10:06:46.039Z,5.63
2018-02-16T10:09:13.482Z,7.93
2018-02-16T10:11:40.927Z,5.70
2018-02-16T10:14:08.383Z,6.40
2018-02-16T10:16:35.838Z,6.80
2018-02-16T10:19:03.300Z,5.80
2018-02-16T10:21:30.755Z,7.57
2018-02-16T10:23:58.211Z,6.90
2018-02-16T10:26:25.662Z,7.30
2018-02-16T10:28:53.120Z,5.93
2018-02-16T10:31:20.578Z,12.60
2018-02-16T10:33:48.035Z,9.03
2018-02-16T10:36:16.266Z,8.10
2018-02-16T10:38:43.686Z,6.53
2018-02-16T10:41:11.130Z,9.93
2018-02-16T10:43:38.583Z,9.53
2018-02-16T10:46:06.032Z,8.70
2018-02-16T10:48:33.483Z,6.93
2018-02-16T10:51:00.924Z,8.70
2018-02-16T10:53:28.363Z,13.17
2018-02-16T10:55:56.566Z,11.07
2018-02-16T10:58:24.027Z,7.90
2018-02-16T11:00:57.024Z,12.23
2018-02-16T11:03:30.226Z,5.97
2018-02-16T11:05:57.667Z,6.43
2018-02-16T11:08:30.898Z,11.47
2018-02-16T11:10:58.339Z,8.00
2018-02-16T11:13:25.788Z,12.30
2018-02-16T11:15:53.239Z,9.53
2018-02-16T11:18:20.696Z,13.57
2018-02-16T11:20:48.144Z,10.63
2018-02-16T11:23:15.583Z,9.70
2018-02-16T11:25:43.039Z,13.10
2018-02-16T11:28:10.501Z,13.80
2018-02-16T11:30:37.955Z,12.63
2018-02-16T11:33:05.403Z,9.90
2018-02-16T11:35:32.863Z,11.10
2018-02-16T11:38:00.322Z,10.47
2018-02-16T11:40:27.776Z,11.37
2018-02-16T11:42:55.225Z,16.03
2018-02-16T11:45:22.764Z,14.37
2018-02-16T11:47:50.119Z,12.20
2018-02-16T11:50:18.335Z,9.73
2018-02-16T11:52:45.774Z,11.77
2018-02-16T11:55:13.231Z,10.33
2018-02-16T11:57:40.683Z,15.13
2018-02-16T12:00:08.138Z,7.90
2018-02-16T12:02:35.582Z,11.17
2018-02-16T12:05:03.035Z,8.40
2018-02-16T12:07:30.473Z,9.20
2018-02-16T12:09:58.694Z,7.57
2018-02-16T12:12:26.150Z,10.33
2018-02-16T12:14:53.607Z,11.37
2018-02-16T12:17:21.050Z,8.00
2018-02-16T12:19:48.508Z,8.47
2018-02-16T12:22:15.959Z,9.43
2018-02-16T12:24:43.443Z,8.70
2018-02-16T12:27:10.899Z,8.20
2018-02-16T12:29:38.355Z,8.60
2018-02-16T12:32:05.811Z,9.33
2018-02-16T12:34:33.260Z,8.17
2018-02-16T12:37:00.722Z,6.87
2018-02-16T12:39:28.171Z,7.93
2018-02-16T12:41:55.622Z,8.73
2018-02-16T12:44:23.071Z,9.53
2018-02-16T12:46:50.523Z,10.40
2018-02-16T12:49:17.980Z,9.13
2018-02-16T12:51:45.434Z,9.60
2018-02-16T12:54:12.942Z,7.23
2018-02-16T12:56:40.385Z,6.83
2018-02-16T12:59:07.830Z,10.30
2018-02-16T13:01:35.296Z,10.93
2018-02-16T13:04:02.748Z,7.47
2018-02-16T13:06:30.195Z,8.50
2018-02-16T13:08:57.663Z,18.73
2018-02-16T13:11:25.118Z,10.33
2018-02-16T13:13:52.571Z,11.83
2018-02-16T13:16:20.027Z,10.50
2018-02-16T13:18:47.479Z,10.10
2018-02-16T13:21:14.932Z,8.13
2018-02-16T13:23:42.388Z,11.53
2018-02-16T13:26:09.842Z,14.23
2018-02-16T13:28:37.303Z,11.63
2018-02-16T13:31:04.748Z,9.50
2018-02-16T13:33:32.213Z,11.10
2018-02-16T13:35:59.668Z,10.40
2018-02-16T13:38:27.935Z,11.00
2018-02-16T13:40:55.386Z,14.73
2018-02-16T13:43:22.846Z,9.80
2018-02-16T13:45:50.292Z,9.80
2018-02-16T13:48:18.511Z,6.60
2018-02-16T13:50:45.960Z,11.00
2018-02-16T13:53:13.412Z,8.00
2018-02-16T13:55:40.902Z,10.10
2018-02-16T13:58:08.323Z,14.77
2018-02-16T14:00:35.784Z,12.03
2018-02-16T14:03:03.234Z,9.73
2018-02-16T14:05:30.687Z,10.63
2018-02-16T14:07:58.319Z,10.67
2018-02-16T14:10:25.775Z,11.57
2018-02-16T14:12:53.231Z,13.13
2018-02-16T14:15:20.840Z,10.97
2018-02-16T14:17:48.292Z,8.47
2018-02-16T14:20:15.735Z,15.33
2018-02-16T14:22:43.187Z,16.90
2018-02-16T14:25:10.632Z,11.13
2018-02-16T14:27:38.080Z,14.93
2018-02-16T14:30:05.521Z,9.87
2018-02-16T14:32:32.975Z,12.43
2018-02-16T14:35:00.410Z,9.47
2018-02-16T14:37:27.854Z,17.70
2018-02-16T14:39:56.087Z,18.77
2018-02-16T14:42:23.543Z,18.80
2018-02-16T14:44:51.004Z,17.53
2018-02-16T14:47:18.450Z,15.27
2018-02-16T14:49:45.903Z,18.87
2018-02-16T14:52:13.348Z,16.67
2018-02-16T14:54:40.798Z,16.73
2018-02-16T14:57:08.259Z,16.53
2018-02-16T14:59:35.710Z,18.53
2018-02-16T15:02:03.159Z,18.30
2018-02-16T15:04:30.607Z,23.10
2018-02-16T15:06:58.046Z,15.83
2018-02-16T15:09:26.275Z,29.67
2018-02-16T15:11:53.724Z,12.40
2018-02-16T15:14:21.188Z,17.93
2018-02-16T15:16:48.638Z,14.53
2018-02-16T15:19:16.102Z,13.80
2018-02-16T15:21:43.559Z,14.93
2018-02-16T15:24:11.010Z,14.43
2018-02-16T15:26:38.463Z,11.83
2018-02-16T15:29:05.915Z,12.23
2018-02-16T15:31:33.363Z,10.70
2018-02-16T15:34:00.819Z,11.37
2018-02-16T15:36:28.286Z,53.23
2018-02-16T15:38:55.942Z,18.40
2018-02-16T15:41:23.399Z,17.60
2018-02-16T15:43:50.887Z,12.33
2018-02-16T15:46:18.335Z,12.03
2018-02-16T15:48:45.783Z,12.43
2018-02-16T15:51:13.239Z,19.07
2018-02-16T15:53:40.692Z,22.93
2018-02-16T15:56:08.148Z,15.63
2018-02-16T15:58:35.605Z,18.40
2018-02-16T16:01:03.063Z,20.33
2018-02-16T16:03:30.519Z,17.43
2018-02-16T16:05:57.976Z,23.27
2018-02-16T16:08:25.419Z,15.73
2018-02-16T16:10:52.871Z,21.10
2018-02-16T16:13:20.323Z,17.33
2018-02-16T16:15:48.548Z,18.43
2018-02-16T16:18:15.999Z,16.57
2018-02-16T16:20:43.450Z,20.63
2018-02-16T16:23:10.895Z,20.70
2018-02-16T16:25:38.346Z,17.03
2018-02-16T16:28:05.799Z,25.10
2018-02-16T16:30:33.243Z,22.43
2018-02-16T16:33:00.690Z,17.30
2018-02-16T16:35:28.142Z,22.43
2018-02-16T16:37:56.355Z,19.40
2018-02-16T16:40:23.815Z,17.50
2018-02-16T16:42:51.255Z,17.80
2018-02-16T16:45:18.926Z,30.17
2018-02-16T16:47:46.446Z,30.40
2018-02-16T16:50:14.671Z,27.53
2018-02-16T16:52:42.127Z,23.20
2018-02-16T16:55:09.583Z,32.47
2018-02-16T16:57:37.038Z,23.43
2018-02-16T17:00:04.507Z,20.17
2018-02-16T17:02:31.954Z,25.10
2018-02-16T17:04:59.399Z,20.30
2018-02-16T17:07:26.864Z,23.17
2018-02-16T17:09:54.319Z,22.27
2018-02-16T17:12:21.775Z,25.63
2018-02-16T17:14:49.220Z,26.30
2018-02-16T17:17:16.679Z,24.63
2018-02-16T17:19:44.135Z,20.77
2018-02-16T17:22:11.581Z,22.07
2018-02-16T17:24:39.169Z,22.03
2018-02-16T17:27:06.631Z,17.97
2018-02-16T17:29:34.087Z,19.30
2018-02-16T17:32:01.548Z,24.03
2018-02-16T17:34:28.995Z,25.00
2018-02-16T17:36:56.455Z,23.20
2018-02-16T17:39:23.916Z,20.80
2018-02-16T17:41:51.370Z,30.90
2018-02-16T17:44:18.835Z,22.90
2018-02-16T17:46:46.295Z,24.80
2018-02-16T17:49:13.872Z,25.70
2018-02-16T17:51:42.100Z,30.07
2018-02-16T17:54:09.556Z,26.27
2018-02-16T17:56:37.015Z,36.80
2018-02-16T17:59:04.467Z,33.43
2018-02-16T18:01:31.942Z,31.17
2018-02-16T18:03:59.390Z,51.70
2018-02-16T18:06:26.858Z,33.90
2018-02-16T18:08:54.306Z,30.73
2018-02-16T18:11:21.762Z,30.40
2018-02-16T18:13:49.223Z,25.43
2018-02-16T18:16:16.690Z,30.73
2018-02-16T18:18:44.147Z,31.27
2018-02-16T18:21:11.590Z,27.00
2018-02-16T18:23:39.075Z,39.87
2018-02-16T18:26:07.297Z,31.53
2018-02-16T18:28:34.766Z,25.80
2018-02-16T18:31:02.219Z,29.00
2018-02-16T18:33:29.698Z,81.90
2018-02-16T18:35:57.152Z,62.10
2018-02-16T18:38:24.607Z,32.23
2018-02-16T18:40:52.062Z,42.40
2018-02-16T18:43:19.585Z,42.50
2018-02-16T18:45:47.042Z,31.20
2018-02-16T18:48:14.512Z,39.53
2018-02-16T18:50:42.038Z,32.03
2018-02-16T18:53:09.457Z,50.13
2018-02-16T18:55:36.922Z,45.40
2018-02-16T18:58:05.159Z,45.60
2018-02-16T19:00:32.610Z,42.43
2018-02-16T19:03:00.088Z,42.63
2018-02-16T19:05:27.547Z,34.30
2018-02-16T19:07:55.019Z,67.10
2018-02-16T19:10:23.277Z,61.30
2018-02-16T19:12:50.707Z,37.33
2018-02-16T19:15:18.299Z,35.20
2018-02-16T19:17:45.812Z,31.93
2018-02-16T19:20:13.313Z,34.43
2018-02-16T19:22:41.543Z,34.47
2018-02-16T19:25:09.007Z,36.40
2018-02-16T19:27:36.460Z,37.53
2018-02-16T19:30:03.923Z,31.10
2018-02-16T19:32:31.388Z,32.17
2018-02-16T19:34:59.133Z,29.60
2018-02-16T19:37:26.623Z,26.70
2018-02-16T19:39:54.079Z,32.17
2018-02-16T19:42:21.869Z,35.53
2018-02-16T19:44:49.387Z,27.40
2018-02-16T19:47:16.843Z,28.13
2018-02-16T19:49:44.832Z,30.83
2018-02-16T19:52:12.916Z,24.57
2018-02-16T19:54:41.009Z,28.40
2018-02-16T19:57:09.558Z,25.40
2018-02-16T19:59:37.522Z,29.90
2018-02-16T20:02:06.159Z,29.33
2018-02-16T20:04:34.229Z,32.13
2018-02-16T20:07:01.763Z,36.27
2018-02-16T20:09:30.004Z,39.67
2018-02-16T20:11:57.459Z,41.70
2018-02-16T20:14:25.474Z,49.30
2018-02-16T20:16:53.041Z,47.67
2018-02-16T20:19:20.507Z,40.27
2018-02-16T20:21:47.963Z,39.23
2018-02-16T20:24:15.422Z,35.47
2018-02-16T20:26:42.879Z,32.93
2018-02-16T20:29:10.345Z,31.67
2018-02-16T20:31:38.137Z,37.13
2018-02-16T20:34:05.669Z,35.47
2018-02-16T20:36:33.114Z,35.87
2018-02-16T20:39:00.588Z,37.30
2018-02-16T20:41:28.058Z,32.27
2018-02-16T20:43:55.536Z,35.03
2018-02-16T20:46:23.754Z,35.03
2018-02-16T20:48:51.217Z,35.00
2018-02-16T20:51:18.831Z,31.67
2018-02-16T20:53:46.290Z,40.30
2018-02-16T20:56:14.602Z,36.87
2018-02-16T20:58:42.113Z,43.43
2018-02-16T21:01:10.371Z,67.10
2018-02-16T21:03:37.819Z,65.27
2018-02-16T21:06:05.292Z,64.70
2018-02-16T21:08:32.752Z,49.47
2018-02-16T21:11:00.215Z,99.53
2018-02-16T21:13:28.451Z,43.90
2018-02-16T21:15:55.915Z,64.77
2018-02-16T21:18:23.370Z,65.80
2018-02-16T21:20:51.659Z,62.93
2018-02-16T21:23:19.139Z,66.17
2018-02-16T21:25:47.374Z,61.23
2018-02-16T21:28:14.836Z,101.43
2018-02-16T21:30:42.291Z,109.53
2018-02-16T21:33:09.765Z,65.07
2018-02-16T21:35:37.219Z,212.23
2018-02-16T21:38:04.687Z,105.07
2018-02-16T21:40:32.139Z,66.13
2018-02-16T21:42:59.612Z,121.63
2018-02-16T21:45:27.826Z,53.17
2018-02-16T21:47:55.287Z,85.67
2018-02-16T21:50:22.755Z,88.50
2018-02-16T21:52:50.221Z,78.43
2018-02-16T21:55:17.782Z,59.30
2018-02-16T21:57:45.255Z,58.60
2018-02-16T22:00:12.725Z,59.53
2018-02-16T22:02:40.995Z,49.57
2018-02-16T22:05:08.460Z,69.43
2018-02-16T22:07:36.683Z,53.97
2018-02-16T22:10:04.192Z,77.97
2018-02-16T22:12:31.678Z,123.47
2018-02-16T22:14:59.128Z,82.93
2018-02-16T22:17:26.651Z,127.03
2018-02-16T22:19:54.868Z,90.47
2018-02-16T22:22:22.331Z,81.67
2018-02-16T22:24:49.787Z,94.83
2018-02-16T22:27:17.283Z,125.80
2018-02-16T22:29:44.752Z,111.93
2018-02-16T22:32:12.972Z,56.80
2018-02-16T22:34:40.503Z,51.90
2018-02-16T22:37:07.954Z,95.53
2018-02-16T22:39:36.186Z,50.50
2018-02-16T22:42:03.639Z,41.43
2018-02-16T22:44:31.082Z,40.70
2018-02-16T22:46:58.539Z,36.30
2018-02-16T22:49:25.994Z,41.73
2018-02-16T22:51:53.443Z,42.43
2018-02-16T22:54:20.900Z,42.20
2018-02-16T22:56:48.346Z,91.97
2018-02-16T22:59:15.803Z,78.17
2018-02-16T23:01:43.267Z,100.70
2018-02-16T23:04:10.720Z,105.33
2018-02-16T23:06:38.180Z,96.53
2018-02-16T23:09:05.627Z,53.33
2018-02-16T23:11:33.087Z,70.23
2018-02-16T23:14:00.543Z,65.70
2018-02-16T23:16:28.003Z,52.80
2018-02-16T23:18:55.458Z,51.70
2018-02-16T23:21:22.914Z,42.07
2018-02-16T23:23:50.363Z,41.83
2018-02-16T23:26:17.823Z,52.93
2018-02-16T23:28:45.299Z,56.50
2018-02-16T23:31:12.747Z,76.97
2018-02-16T23:33:40.190Z,68.83
2018-02-16T23:36:07.647Z,58.73
2018-02-16T23:38:35.102Z,62.73
2018-02-16T23:41:02.559Z,76.23
2018-02-16T23:43:29.963Z,50.00
2018-02-16T23:45:57.424Z,49.77
2018-02-16T23:48:24.876Z,54.93
2018-02-16T23:50:52.335Z,48.33
2018-02-16T23:53:19.787Z,54.90
2018-02-16T23:55:47.252Z,47.43
2018-02-16T23:58:14.709Z,56.60
